createdAt,value
2018-11-04T00:02:07.730Z,100596.51
2018-11-04T00:04:47.316Z,100591.22
2018-11-04T00:07:20.671Z,100590.62
2018-11-04T00:09:56.583Z,100584.64
2018-11-04T00:12:31.231Z,100580.62
2018-11-04T00:15:05.635Z,100578.39
2018-11-04T00:17:41.761Z,100573.62
2018-11-04T00:20:17.934Z,100569.30
2018-11-04T00:22:51.866Z,100566.98
2018-11-04T00:25:27.309Z,100571.07
2018-11-04T00:28:03.467Z,100567.52
2018-11-04T00:30:39.128Z,100566.30
2018-11-04T00:33:15.080Z,100565.75
2018-11-04T00:35:48.679Z,100561.96
2018-11-04T00:38:25.337Z,100553.09
2018-11-04T00:41:03.675Z,100557.07
2018-11-04T00:43:38.677Z,100553.48
2018-11-04T00:46:12.374Z,100551.53
2018-11-04T00:48:45.689Z,100549.44
2018-11-04T00:51:20.834Z,100549.77
2018-11-04T00:53:54.998Z,100548.48
2018-11-04T00:56:27.633Z,100546.14
2018-11-04T00:59:09.415Z,100543.27
2018-11-04T01:01:42.626Z,100536.45
2018-11-04T01:04:15.494Z,100529.23
2018-11-04T01:06:52.338Z,100519.66
2018-11-04T01:09:24.877Z,100512.79
2018-11-04T01:11:58.823Z,100517.02
2018-11-04T01:14:32.047Z,100513.88
2018-11-04T01:17:05.618Z,100506.76
2018-11-04T01:19:39.685Z,100502.03
2018-11-04T01:22:13.565Z,100497.80
2018-11-04T01:24:46.290Z,100493.23
2018-11-04T01:27:19.860Z,100488.24
2018-11-04T01:29:55.449Z,100482.89
2018-11-04T01:32:28.316Z,100475.34
2018-11-04T01:35:01.521Z,100469.75
2018-11-04T01:37:35.952Z,100469.14
2018-11-04T01:40:12.505Z,100463.10
2018-11-04T01:42:45.217Z,100465.57
2018-11-04T01:45:18.812Z,100461.04
2018-11-04T01:47:52.950Z,100458.45
2018-11-04T01:50:27.687Z,100452.52
2018-11-04T01:53:00.565Z,100452.08
2018-11-04T01:55:33.114Z,100450.61
2018-11-04T01:58:13.365Z,100451.58
2018-11-04T02:00:46.559Z,100438.16
2018-11-04T02:03:21.493Z,100434.72
2018-11-04T02:05:54.321Z,100434.46
2018-11-04T02:08:29.442Z,100427.00
2018-11-04T02:11:17.709Z,100424.54
2018-11-04T02:13:50.889Z,100417.27
2018-11-04T02:16:26.681Z,100421.08
2018-11-04T02:19:00.813Z,100416.14
2018-11-04T02:21:36.763Z,100411.14
2018-11-04T02:24:14.666Z,100408.94
2018-11-04T02:26:48.357Z,100414.23
2018-11-04T02:29:21.543Z,100399.77
2018-11-04T02:31:54.322Z,100397.02
2018-11-04T02:34:26.966Z,100388.64
2018-11-04T02:37:02.560Z,100389.52
2018-11-04T02:39:37.761Z,100387.62
2018-11-04T02:42:10.385Z,100386.37
2018-11-04T02:44:43.358Z,100383.22
2018-11-04T02:47:16.574Z,100378.95
2018-11-04T02:49:51.025Z,100372.41
2018-11-04T02:52:23.961Z,100369.49
2018-11-04T02:54:56.514Z,100369.50
2018-11-04T02:57:29.117Z,100357.51
2018-11-04T03:00:06.282Z,100356.74
2018-11-04T03:02:39.072Z,100349.65
2018-11-04T03:05:11.906Z,100340.52
2018-11-04T03:07:44.896Z,100338.59
2018-11-04T03:10:19.045Z,100335.50
2018-11-04T03:12:51.534Z,100339.41
2018-11-04T03:15:25.831Z,100334.69
2018-11-04T03:17:58.266Z,100335.67
2018-11-04T03:20:30.862Z,100342.37
2018-11-04T03:23:05.474Z,100344.80
2018-11-04T03:25:38.457Z,100343.59
2018-11-04T03:28:11.063Z,100344.55
2018-11-04T03:30:43.867Z,100343.14
2018-11-04T03:33:16.363Z,100346.11
2018-11-04T03:35:49.062Z,100343.22
2018-11-04T03:38:21.982Z,100345.69
2018-11-04T03:40:54.595Z,100346.05
2018-11-04T03:43:27.153Z,100352.51
2018-11-04T03:46:00.175Z,100346.73
2018-11-04T03:48:37.213Z,100350.58
2018-11-04T03:51:20.451Z,100349.28
2018-11-04T03:53:53.210Z,100344.76
2018-11-04T03:56:25.824Z,100348.97
2018-11-04T03:59:00.810Z,100344.52
2018-11-04T04:01:34.421Z,100341.55
2018-11-04T04:04:07.462Z,100337.41
2018-11-04T04:06:41.234Z,100343.79
2018-11-04T04:09:14.070Z,100343.44
2018-11-04T04:11:46.645Z,100336.39
2018-11-04T04:14:19.578Z,100342.06
2018-11-04T04:16:53.952Z,100335.82
2018-11-04T04:19:26.502Z,100333.33
2018-11-04T04:22:00.767Z,100330.88
2018-11-04T04:24:34.310Z,100326.86
2018-11-04T04:27:07.145Z,100324.52
2018-11-04T04:29:42.735Z,100325.87
2018-11-04T04:32:15.304Z,100323.17
2018-11-04T04:34:48.148Z,100317.55
2018-11-04T04:37:21.132Z,100314.17
2018-11-04T04:39:53.617Z,100308.44
2018-11-04T04:42:26.818Z,100313.00
2018-11-04T04:44:59.580Z,100310.09
2018-11-04T04:47:33.846Z,100305.30
2018-11-04T04:50:07.001Z,100302.64
2018-11-04T04:52:41.251Z,100298.44
2018-11-04T04:55:14.069Z,100300.14
2018-11-04T04:57:47.652Z,100297.72
2018-11-04T05:00:23.599Z,100299.06
2018-11-04T05:02:57.454Z,100297.58
2018-11-04T05:05:30.308Z,100291.56
2018-11-04T05:08:05.327Z,100286.25
2018-11-04T05:10:37.894Z,100282.80
2018-11-04T05:13:11.180Z,100277.07
2018-11-04T05:15:56.582Z,100283.06
2018-11-04T05:18:29.772Z,100282.16
2018-11-04T05:21:02.446Z,100281.20
2018-11-04T05:23:35.673Z,100283.52
2018-11-04T05:26:09.907Z,100288.98
2018-11-04T05:28:42.577Z,100280.92
2018-11-04T05:31:19.238Z,100283.55
2018-11-04T05:33:51.821Z,100282.19
2018-11-04T05:36:24.970Z,100278.53
2018-11-04T05:38:58.288Z,100282.80
2018-11-04T05:41:31.027Z,100280.47
2018-11-04T05:44:05.997Z,100280.86
2018-11-04T05:46:39.707Z,100278.50
2018-11-04T05:49:12.765Z,100276.47
2018-11-04T05:51:45.337Z,100276.69
2018-11-04T05:54:18.613Z,100274.77
2018-11-04T05:56:51.345Z,100271.87
2018-11-04T05:59:24.516Z,100270.19
2018-11-04T06:01:58.548Z,100266.86
2018-11-04T06:04:31.146Z,100267.14
2018-11-04T06:07:03.722Z,100269.53
2018-11-04T06:09:40.986Z,100272.17
2018-11-04T06:12:13.791Z,100265.47
2018-11-04T06:14:47.150Z,100267.53
2018-11-04T06:17:20.190Z,100270.69
2018-11-04T06:19:52.753Z,100270.79
2018-11-04T06:22:27.629Z,100264.75
2018-11-04T06:25:00.406Z,100264.17
2018-11-04T06:27:33.192Z,100265.98
2018-11-04T06:30:10.889Z,100264.52
2018-11-04T06:32:45.110Z,100254.73
2018-11-04T06:35:17.856Z,100255.36
2018-11-04T06:37:50.881Z,100253.70
2018-11-04T06:40:23.519Z,100250.70
2018-11-04T06:42:56.162Z,100262.55
2018-11-04T06:45:30.423Z,100253.64
2018-11-04T06:48:03.190Z,100256.04
2018-11-04T06:50:35.950Z,100259.75
2018-11-04T06:53:09.074Z,100258.52
2018-11-04T06:55:41.734Z,100261.02
2018-11-04T06:58:15.849Z,100260.36
2018-11-04T07:00:50.135Z,100256.79
2018-11-04T07:03:22.701Z,100252.81
2018-11-04T07:05:55.516Z,100251.05
2018-11-04T07:08:35.046Z,100250.55
2018-11-04T07:11:08.807Z,100250.82
2018-11-04T07:13:41.425Z,100256.67
2018-11-04T07:16:19.399Z,100254.47
2018-11-04T07:18:52.081Z,100258.44
2018-11-04T07:21:27.109Z,100252.81
2018-11-04T07:24:02.107Z,100251.41
2018-11-04T07:26:35.436Z,100245.59
2018-11-04T07:29:08.860Z,100250.95
2018-11-04T07:31:41.979Z,100246.36
2018-11-04T07:34:16.534Z,100246.52
2018-11-04T07:36:49.140Z,100243.91
2018-11-04T07:39:23.833Z,100239.81
2018-11-04T07:41:57.518Z,100238.20
2018-11-04T07:44:31.645Z,100233.31
2018-11-04T07:47:06.321Z,100229.92
2018-11-04T07:49:38.903Z,100230.30
2018-11-04T07:52:19.751Z,100228.12
2018-11-04T07:54:53.738Z,100226.02
2018-11-04T07:57:26.299Z,100225.50
2018-11-04T07:59:59.022Z,100222.77
2018-11-04T08:02:32.072Z,100222.20
2018-11-04T08:05:04.901Z,100220.65
2018-11-04T08:07:39.334Z,100219.24
2018-11-04T08:10:13.334Z,100212.21
2018-11-04T08:12:46.341Z,100213.18
2018-11-04T08:15:19.814Z,100213.86
2018-11-04T08:17:56.001Z,100207.70
2018-11-04T08:20:28.853Z,100202.36
2018-11-04T08:23:04.316Z,100200.83
2018-11-04T08:25:37.020Z,100202.36
2018-11-04T08:28:15.996Z,100203.28
2018-11-04T08:30:57.566Z,100204.88
2018-11-04T08:33:40.322Z,100201.61
2018-11-04T08:36:18.294Z,100200.42
2018-11-04T08:38:52.580Z,100198.12
2018-11-04T08:41:25.971Z,100193.57
2018-11-04T08:43:59.028Z,100199.66
2018-11-04T08:46:36.042Z,100195.19
2018-11-04T08:49:12.921Z,100189.78
2018-11-04T08:51:47.165Z,100185.25
2018-11-04T08:54:21.365Z,100186.92
2018-11-04T08:56:57.096Z,100179.69
2018-11-04T08:59:34.816Z,100176.00
2018-11-04T09:02:08.932Z,100174.80
2018-11-04T09:04:42.379Z,100180.75
2018-11-04T09:07:38.956Z,100176.64
2018-11-04T09:10:33.097Z,100173.33
2018-11-04T09:13:08.575Z,100170.65
2018-11-04T09:15:43.507Z,100168.73
2018-11-04T09:18:19.383Z,100159.26
2018-11-04T09:20:58.622Z,100162.47
2018-11-04T09:23:35.956Z,100160.88
2018-11-04T09:26:12.489Z,100156.73
2018-11-04T09:28:47.073Z,100159.41
2018-11-04T09:31:23.509Z,100162.04
2018-11-04T09:33:56.262Z,100161.69
2018-11-04T09:36:34.629Z,100159.08
2018-11-04T09:39:20.967Z,100160.14
2018-11-04T09:41:58.418Z,100157.67
2018-11-04T09:44:32.617Z,100161.58
2018-11-04T09:47:08.574Z,100164.17
2018-11-04T09:49:44.431Z,100166.75
2018-11-04T09:52:18.498Z,100159.33
2018-11-04T09:54:55.198Z,100165.40
2018-11-04T09:57:29.226Z,100171.67
2018-11-04T10:00:07.934Z,100168.14
2018-11-04T10:02:42.313Z,100174.11
2018-11-04T10:05:17.917Z,100169.30
2018-11-04T10:07:56.882Z,100172.77
2018-11-04T10:10:35.007Z,100174.18
2018-11-04T10:13:09.517Z,100169.48
2018-11-04T10:15:47.518Z,100164.92
2018-11-04T10:18:25.757Z,100156.58
2018-11-04T10:21:01.416Z,100148.92
2018-11-04T10:23:37.935Z,100151.00
2018-11-04T10:26:14.421Z,100149.14
2018-11-04T10:28:49.560Z,100155.06
2018-11-04T10:31:24.646Z,100150.97
2018-11-04T10:34:00.907Z,100148.13
2018-11-04T10:36:36.413Z,100143.52
2018-11-04T10:39:12.544Z,100137.27
2018-11-04T10:41:51.605Z,100137.50
2018-11-04T10:44:25.502Z,100131.03
2018-11-04T10:47:03.885Z,100132.02
2018-11-04T10:49:39.034Z,100130.90
2018-11-04T10:52:13.775Z,100127.93
2018-11-04T10:54:58.656Z,100118.94
2018-11-04T10:57:33.651Z,100117.20
2018-11-04T11:00:17.665Z,100109.62
2018-11-04T11:02:52.271Z,100109.64
2018-11-04T11:05:34.609Z,100100.38
2018-11-04T11:08:08.239Z,100096.61
2018-11-04T11:10:42.569Z,100094.48
2018-11-04T11:13:18.649Z,100085.89
2018-11-04T11:15:53.181Z,100079.96
2018-11-04T11:18:28.337Z,100075.17
2018-11-04T11:21:09.907Z,100077.91
2018-11-04T11:23:44.326Z,100065.23
2018-11-04T11:26:19.593Z,100060.00
2018-11-04T11:28:57.692Z,100056.58
2018-11-04T11:31:38.199Z,100051.27
2018-11-04T11:34:11.363Z,100045.88
2018-11-04T11:36:47.826Z,100042.94
2018-11-04T11:39:27.023Z,100042.73
2018-11-04T11:44:45.527Z,100028.22
2018-11-04T11:47:24.849Z,100029.70
2018-11-04T11:50:22.587Z,100033.55
2018-11-04T11:53:10.463Z,100029.54
2018-11-04T11:55:47.905Z,100029.94
2018-11-04T11:58:46.489Z,100021.30
2018-11-04T12:01:21.098Z,100022.59
2018-11-04T12:03:54.883Z,100016.13
2018-11-04T12:06:35.799Z,100016.16
2018-11-04T12:09:14.298Z,100010.55
2018-11-04T12:11:48.944Z,100008.22
2018-11-04T12:14:25.571Z,99996.91
2018-11-04T12:17:00.150Z,99993.19
2018-11-04T12:19:33.737Z,99984.75
2018-11-04T12:22:23.418Z,99975.94
2018-11-04T12:25:04.867Z,99966.98
2018-11-04T12:27:43.347Z,99963.69
2018-11-04T12:30:20.102Z,99959.88
2018-11-04T12:32:57.722Z,99954.65
2018-11-04T12:35:34.110Z,99955.25
2018-11-04T12:38:12.811Z,99957.56
2018-11-04T12:40:47.404Z,99950.20
2018-11-04T12:43:21.176Z,99950.95
2018-11-04T12:45:57.855Z,99949.84
2018-11-04T12:48:33.664Z,99944.17
2018-11-04T12:51:14.565Z,99947.64
2018-11-04T12:53:52.996Z,99949.30
2018-11-04T12:56:27.879Z,99947.05
2018-11-04T12:59:05.310Z,99945.03
2018-11-04T13:01:46.466Z,99945.49
2018-11-04T13:04:22.559Z,99941.95
2018-11-04T13:07:04.228Z,99939.16
2018-11-04T13:09:36.976Z,99937.05
2018-11-04T13:12:15.625Z,99936.92
2018-11-04T13:14:51.803Z,99930.69
2018-11-04T13:17:33.803Z,99930.51
2018-11-04T13:20:15.751Z,99927.45
2018-11-04T13:22:51.306Z,99923.08
2018-11-04T13:25:39.318Z,99919.63
2018-11-04T13:28:16.397Z,99905.67
2018-11-04T13:30:50.746Z,99908.48
2018-11-04T13:33:28.578Z,99905.91
2018-11-04T13:38:41.942Z,99886.53
2018-11-04T13:41:15.554Z,99878.69
2018-11-04T13:43:55.852Z,99876.05
2018-11-04T13:46:30.837Z,99871.25
2018-11-04T13:49:04.175Z,99867.32
2018-11-04T13:51:40.129Z,99863.53
2018-11-04T13:54:19.073Z,99859.08
2018-11-04T13:56:56.341Z,99852.81
2018-11-04T13:59:45.342Z,99853.23
2018-11-04T14:02:31.813Z,99843.86
2018-11-04T14:05:08.947Z,99835.82
2018-11-04T14:07:47.010Z,99838.23
2018-11-04T14:10:25.196Z,99832.00
2018-11-04T14:13:02.786Z,99825.02
2018-11-04T14:15:38.505Z,99825.41
2018-11-04T14:18:14.965Z,99824.45
2018-11-04T14:20:56.259Z,99818.00
2018-11-04T14:23:34.663Z,99829.64
2018-11-04T14:26:10.254Z,99822.47
2018-11-04T14:28:46.960Z,99821.48
2018-11-04T14:31:21.739Z,99821.05
2018-11-04T14:33:57.773Z,99821.06
2018-11-04T14:36:31.517Z,99820.23
2018-11-04T14:39:08.786Z,99818.97
2018-11-04T14:41:46.189Z,99822.25
2018-11-04T14:44:27.535Z,99817.51
2018-11-04T14:47:04.035Z,99821.27
2018-11-04T14:49:38.373Z,99824.57
2018-11-04T14:52:14.420Z,99824.27
2018-11-04T14:54:48.112Z,99824.69
2018-11-04T14:57:26.743Z,99831.30
2018-11-04T15:00:06.103Z,99827.57
2018-11-04T15:02:40.682Z,99831.88
2018-11-04T15:05:15.485Z,99827.15
2018-11-04T15:07:50.787Z,99833.26
2018-11-04T15:10:25.781Z,99834.09
2018-11-04T15:13:02.752Z,99838.20
2018-11-04T15:15:39.645Z,99837.72
2018-11-04T15:18:12.995Z,99838.64
2018-11-04T15:20:46.018Z,99836.19
2018-11-04T15:23:20.184Z,99837.99
2018-11-04T15:25:57.159Z,99838.27
2018-11-04T15:28:40.578Z,99832.96
2018-11-04T15:31:21.014Z,99837.64
2018-11-04T15:34:11.588Z,99836.36
2018-11-04T15:36:50.577Z,99832.94
2018-11-04T15:39:24.707Z,99826.28
2018-11-04T15:42:02.561Z,99821.16
2018-11-04T15:44:37.918Z,99815.94
2018-11-04T15:47:11.864Z,99811.15
2018-11-04T15:49:51.270Z,99810.44
2018-11-04T15:52:26.357Z,99808.88
2018-11-04T15:55:01.710Z,99809.06
2018-11-04T15:57:49.122Z,99808.64
2018-11-04T16:00:23.759Z,99803.14
2018-11-04T16:02:58.200Z,99803.30
2018-11-04T16:05:32.348Z,99802.52
2018-11-04T16:08:06.383Z,99811.91
2018-11-04T16:10:43.719Z,99811.74
2018-11-04T16:13:22.537Z,99807.06
2018-11-04T16:16:03.663Z,99807.28
2018-11-04T16:18:42.577Z,99816.83
2018-11-04T16:21:20.905Z,99818.45
2018-11-04T16:23:58.921Z,99824.25
2018-11-04T16:26:33.613Z,99825.03
2018-11-04T16:29:10.468Z,99823.53
2018-11-04T16:31:44.392Z,99807.72
2018-11-04T16:34:28.018Z,99801.59
2018-11-04T16:37:04.021Z,99805.64
2018-11-04T16:39:39.325Z,99808.95
2018-11-04T16:42:15.572Z,99800.06
2018-11-04T16:44:52.649Z,99803.92
2018-11-04T16:47:37.442Z,99810.83
2018-11-04T16:50:18.438Z,99811.28
2018-11-04T16:52:56.546Z,99812.22
2018-11-04T16:55:38.495Z,99805.61
2018-11-04T16:58:14.837Z,99807.88
2018-11-04T17:00:54.793Z,99814.45
2018-11-04T17:03:33.670Z,99803.86
2018-11-04T17:06:08.317Z,99800.61
2018-11-04T17:08:51.836Z,99802.06
2018-11-04T17:11:27.877Z,99804.52
2018-11-04T17:14:01.718Z,99801.56
2018-11-04T17:16:40.734Z,99807.63
2018-11-04T17:19:15.631Z,99801.31
2018-11-04T17:21:53.777Z,99798.41
2018-11-04T17:24:55.143Z,99792.20
2018-11-04T17:27:34.721Z,99797.61
2018-11-04T17:30:17.939Z,99796.97
2018-11-04T17:33:00.773Z,99799.40
2018-11-04T17:35:35.725Z,99796.27
2018-11-04T17:38:10.758Z,99793.73
2018-11-04T17:40:51.447Z,99794.19
2018-11-04T17:43:34.523Z,99798.70
2018-11-04T17:46:14.073Z,99795.22
2018-11-04T17:48:51.404Z,99790.96
2018-11-04T17:51:30.968Z,99791.93
2018-11-04T17:54:07.051Z,99784.78
2018-11-04T17:56:43.081Z,99787.23
2018-11-04T17:59:18.311Z,99790.41
2018-11-04T18:01:57.545Z,99790.16
2018-11-04T18:04:36.991Z,99781.53
2018-11-04T18:07:20.451Z,99777.41
2018-11-04T18:10:10.474Z,99774.38
2018-11-04T18:12:46.858Z,99771.80
2018-11-04T18:15:20.419Z,99769.67
2018-11-04T18:17:58.717Z,99758.97
2018-11-04T18:20:34.928Z,99759.10
2018-11-04T18:23:19.885Z,99762.58
2018-11-04T18:25:54.404Z,99761.19
2018-11-04T18:28:30.865Z,99762.28
2018-11-04T18:31:07.949Z,99772.42
2018-11-04T18:33:50.631Z,99771.31
2018-11-04T18:36:33.792Z,99770.06
2018-11-04T18:39:10.490Z,99768.20
2018-11-04T18:41:44.565Z,99764.24
2018-11-04T18:44:21.256Z,99771.00
2018-11-04T18:47:05.170Z,99774.41
2018-11-04T18:49:39.369Z,99776.69
2018-11-04T18:52:16.386Z,99772.64
2018-11-04T18:54:50.801Z,99775.20
2018-11-04T18:57:25.117Z,99776.35
2018-11-04T18:59:59.406Z,99771.52
2018-11-04T19:02:36.396Z,99765.79
2018-11-04T19:05:09.725Z,99763.89
2018-11-04T19:07:43.980Z,99760.80
2018-11-04T19:10:25.377Z,99767.66
2018-11-04T19:13:12.879Z,99763.84
2018-11-04T19:15:49.616Z,99767.64
2018-11-04T19:18:25.319Z,99766.73
2018-11-04T19:21:04.172Z,99761.48
2018-11-04T19:23:39.330Z,99760.95
2018-11-04T19:26:16.768Z,99756.45
2018-11-04T19:28:58.263Z,99752.45
2018-11-04T19:31:34.953Z,99746.30
2018-11-04T19:34:15.757Z,99742.52
2018-11-04T19:38:09.868Z,99733.36
2018-11-04T19:40:44.282Z,99739.91
2018-11-04T19:43:18.995Z,99730.48
2018-11-04T19:45:56.033Z,99732.44
2018-11-04T19:48:32.780Z,99736.75
2018-11-04T19:51:15.325Z,99738.38
2018-11-04T19:53:51.220Z,99751.33
2018-11-04T19:56:30.287Z,99748.09
2018-11-04T19:59:06.821Z,99749.05
2018-11-04T20:01:42.270Z,99747.83
2018-11-04T20:04:16.031Z,99739.14
2018-11-04T20:06:49.730Z,99742.00
2018-11-04T20:09:27.311Z,99737.38
2018-11-04T20:12:05.989Z,99726.75
2018-11-04T20:14:41.365Z,99726.69
2018-11-04T20:17:18.848Z,99723.00
2018-11-04T20:20:01.435Z,99721.63
2018-11-04T20:22:36.827Z,99725.64
2018-11-04T20:25:18.716Z,99729.67
2018-11-04T20:27:53.487Z,99731.42
2018-11-04T20:30:29.391Z,99730.61
2018-11-04T20:33:05.698Z,99730.21
2018-11-04T20:35:42.970Z,99729.45
2018-11-04T20:41:25.727Z,99736.72
2018-11-04T20:44:02.810Z,99739.70
2018-11-04T20:46:45.589Z,99728.35
2018-11-04T20:49:33.850Z,99724.59
2018-11-04T20:52:09.348Z,99719.64
2018-11-04T20:54:42.988Z,99720.19
2018-11-04T20:57:30.770Z,99721.27
2018-11-04T21:00:27.290Z,99717.34
2018-11-04T21:03:02.953Z,99722.53
2018-11-04T21:05:45.659Z,99723.14
2018-11-04T21:08:21.614Z,99719.30
2018-11-04T21:10:56.891Z,99727.67
2018-11-04T21:13:33.534Z,99723.22
2018-11-04T21:16:08.141Z,99719.03
2018-11-04T21:18:45.055Z,99717.70
2018-11-04T21:21:20.831Z,99716.52
2018-11-04T21:23:57.355Z,99713.06
2018-11-04T21:26:36.332Z,99714.38
2018-11-04T21:29:12.179Z,99713.96
2018-11-04T21:31:47.593Z,99717.20
2018-11-04T21:34:26.401Z,99709.95
2018-11-04T21:37:01.601Z,99706.20
2018-11-04T21:39:35.560Z,99707.98
2018-11-04T21:42:12.897Z,99710.16
2018-11-04T21:44:47.721Z,99704.94
2018-11-04T21:47:27.099Z,99699.23
2018-11-04T21:50:08.494Z,99684.59
2018-11-04T21:53:17.017Z,99678.38
2018-11-04T21:55:59.697Z,99679.73
2018-11-04T21:58:35.169Z,99674.81
2018-11-04T22:01:20.386Z,99671.84
2018-11-04T22:04:04.359Z,99675.95
2018-11-04T22:06:38.652Z,99668.13
2018-11-04T22:09:13.478Z,99653.93
2018-11-04T22:11:49.423Z,99659.64
2018-11-04T22:14:24.314Z,99657.34
2018-11-04T22:17:00.731Z,99660.23
2018-11-04T22:19:39.522Z,99646.17
2018-11-04T22:22:18.631Z,99636.14
2018-11-04T22:24:56.464Z,99631.07
2018-11-04T22:27:30.058Z,99628.02
2018-11-04T22:30:07.424Z,99619.23
2018-11-04T22:32:41.410Z,99620.97
2018-11-04T22:35:18.418Z,99621.33
2018-11-04T22:37:52.494Z,99625.53
2018-11-04T22:40:26.547Z,99628.78
2018-11-04T22:43:03.574Z,99630.30
2018-11-04T22:45:38.618Z,99635.48
2018-11-04T22:48:11.950Z,99643.59
2018-11-04T22:50:47.089Z,99643.06
2018-11-04T22:53:21.042Z,99641.88
2018-11-04T22:55:54.436Z,99648.94
2018-11-04T22:58:27.787Z,99645.03
2018-11-04T23:01:06.368Z,99636.80
2018-11-04T23:03:43.035Z,99635.36
2018-11-04T23:06:17.848Z,99636.70
2018-11-04T23:08:55.127Z,99640.77
2018-11-04T23:11:29.187Z,99639.16
2018-11-04T23:14:02.831Z,99641.20
2018-11-04T23:16:36.786Z,99632.27
2018-11-04T23:19:10.490Z,99630.08
2018-11-04T23:21:49.713Z,99631.66
2018-11-04T23:24:22.863Z,99634.64
2018-11-04T23:26:55.443Z,99627.28
2018-11-04T23:29:28.596Z,99617.75
2018-11-04T23:32:04.597Z,99615.73
2018-11-04T23:34:37.363Z,99616.98
2018-11-04T23:37:10.657Z,99621.02
2018-11-04T23:39:44.060Z,99617.00
2018-11-04T23:42:18.261Z,99610.09
2018-11-04T23:44:51.833Z,99615.73
2018-11-04T23:47:25.214Z,99616.45
2018-11-04T23:49:59.665Z,99611.97
2018-11-04T23:52:35.084Z,99604.94
2018-11-04T23:55:09.191Z,99604.41
2018-11-04T23:57:45.246Z,99598.38
